sensor_id;sensor_type;location;lat;lon;timestamp;P1;durP1;ratioP1;P2;durP2;ratioP2
14169;SDS011;63889;50.596;8.690;2023-05-10T00:01:46;3.55;;;2.20;;
14169;SDS011;63889;50.596;8.690;2023-05-10T00:04:13;5.07;;;2.17;;
14169;SDS011;63889;50.596;8.690;2023-05-10T00:06:38;3.83;;;2.25;;
14169;SDS011;63889;50.596;8.690;2023-05-10T00:09:04;4.13;;;1.85;;
14169;SDS011;63889;50.596;8.690;2023-05-10T00:11:30;3.17;;;1.70;;
14169;SDS011;63889;50.596;8.690;2023-05-10T00:13:55;1.80;;;1.30;;
14169;SDS011;63889;50.596;8.690;2023-05-10T00:16:21;1.10;;;0.90;;
14169;SDS011;63889;50.596;8.690;2023-05-10T00:18:46;1.60;;;1.27;;
14169;SDS011;63889;50.596;8.690;2023-05-10T00:21:12;3.30;;;1.25;;
14169;SDS011;63889;50.596;8.690;2023-05-10T00:23:37;3.72;;;1.13;;
14169;SDS011;63889;50.596;8.690;2023-05-10T00:26:03;0.90;;;0.77;;
14169;SDS011;63889;50.596;8.690;2023-05-10T00:28:28;0.40;;;0.40;;
14169;SDS011;63889;50.596;8.690;2023-05-10T00:30:54;1.00;;;0.50;;
14169;SDS011;63889;50.596;8.690;2023-05-10T00:33:20;0.73;;;0.40;;
14169;SDS011;63889;50.596;8.690;2023-05-10T00:35:46;1.25;;;0.32;;
14169;SDS011;63889;50.596;8.690;2023-05-10T00:38:11;0.43;;;0.32;;
14169;SDS011;63889;50.596;8.690;2023-05-10T00:40:37;0.20;;;0.20;;
14169;SDS011;63889;50.596;8.690;2023-05-10T00:43:02;1.95;;;0.22;;
14169;SDS011;63889;50.596;8.690;2023-05-10T00:45:28;1.17;;;0.15;;
14169;SDS011;63889;50.596;8.690;2023-05-10T00:47:56;0.70;;;0.30;;
14169;SDS011;63889;50.596;8.690;2023-05-10T00:50:22;2.78;;;0.30;;
14169;SDS011;63889;50.596;8.690;2023-05-10T00:52:48;0.60;;;0.40;;
14169;SDS011;63889;50.596;8.690;2023-05-10T00:55:14;1.25;;;0.50;;
14169;SDS011;63889;50.596;8.690;2023-05-10T00:57:40;1.85;;;0.30;;
14169;SDS011;63889;50.596;8.690;2023-05-10T01:00:06;0.88;;;0.25;;
14169;SDS011;63889;50.596;8.690;2023-05-10T01:02:33;3.78;;;0.32;;
14169;SDS011;63889;50.596;8.690;2023-05-10T01:04:59;3.88;;;0.40;;
14169;SDS011;63889;50.596;8.690;2023-05-10T01:07:26;0.60;;;0.50;;
14169;SDS011;63889;50.596;8.690;2023-05-10T01:09:51;6.80;;;0.57;;
14169;SDS011;63889;50.596;8.690;2023-05-10T01:12:17;0.40;;;0.40;;
14169;SDS011;63889;50.596;8.690;2023-05-10T01:14:43;1.65;;;0.30;;
14169;SDS011;63889;50.596;8.690;2023-05-10T01:17:08;1.45;;;0.30;;
14169;SDS011;63889;50.596;8.690;2023-05-10T01:19:35;3.60;;;0.75;;
14169;SDS011;63889;50.596;8.690;2023-05-10T01:25:22;0.25;;;0.20;;
14169;SDS011;63889;50.596;8.690;2023-05-10T01:37:22;3.60;;;0.25;;
14169;SDS011;63889;50.596;8.690;2023-05-10T01:39:45;0.98;;;0.22;;
14169;SDS011;63889;50.596;8.690;2023-05-10T01:42:17;0.30;;;0.30;;
14169;SDS011;63889;50.596;8.690;2023-05-10T01:49:58;0.40;;;0.30;;
14169;SDS011;63889;50.596;8.690;2023-05-10T01:52:26;2.42;;;0.40;;
14169;SDS011;63889;50.596;8.690;2023-05-10T01:55:02;0.25;;;0.25;;
14169;SDS011;63889;50.596;8.690;2023-05-10T01:57:33;0.50;;;0.28;;
14169;SDS011;63889;50.596;8.690;2023-05-10T02:00:02;0.40;;;0.40;;
14169;SDS011;63889;50.596;8.690;2023-05-10T02:02:30;0.50;;;0.40;;
14169;SDS011;63889;50.596;8.690;2023-05-10T02:05:00;0.57;;;0.57;;
14169;SDS011;63889;50.596;8.690;2023-05-10T02:07:28;2.15;;;0.50;;
14169;SDS011;63889;50.596;8.690;2023-05-10T02:09:54;0.40;;;0.40;;
14169;SDS011;63889;50.596;8.690;2023-05-10T02:12:20;5.22;;;0.70;;
14169;SDS011;63889;50.596;8.690;2023-05-10T02:14:48;0.40;;;0.30;;
14169;SDS011;63889;50.596;8.690;2023-05-10T02:17:15;1.30;;;0.52;;
14169;SDS011;63889;50.596;8.690;2023-05-10T02:19:42;1.08;;;0.60;;
14169;SDS011;63889;50.596;8.690;2023-05-10T02:22:10;1.02;;;0.50;;
14169;SDS011;63889;50.596;8.690;2023-05-10T02:24:36;0.80;;;0.60;;
14169;SDS011;63889;50.596;8.690;2023-05-10T02:27:03;0.40;;;0.40;;
14169;SDS011;63889;50.596;8.690;2023-05-10T02:29:31;2.88;;;0.38;;
14169;SDS011;63889;50.596;8.690;2023-05-10T02:31:57;0.43;;;0.35;;
14169;SDS011;63889;50.596;8.690;2023-05-10T02:34:27;2.67;;;0.60;;
14169;SDS011;63889;50.596;8.690;2023-05-10T02:36:53;0.80;;;0.50;;
14169;SDS011;63889;50.596;8.690;2023-05-10T02:39:20;0.43;;;0.30;;
14169;SDS011;63889;50.596;8.690;2023-05-10T02:41:46;0.38;;;0.22;;
14169;SDS011;63889;50.596;8.690;2023-05-10T02:44:17;0.63;;;0.35;;
14169;SDS011;63889;50.596;8.690;2023-05-10T02:46:44;0.57;;;0.50;;
14169;SDS011;63889;50.596;8.690;2023-05-10T02:49:10;1.70;;;0.50;;
14169;SDS011;63889;50.596;8.690;2023-05-10T02:51:36;1.25;;;0.40;;
14169;SDS011;63889;50.596;8.690;2023-05-10T02:54:13;0.32;;;0.22;;
14169;SDS011;63889;50.596;8.690;2023-05-10T02:56:44;0.30;;;0.30;;
14169;SDS011;63889;50.596;8.690;2023-05-10T02:59:12;0.70;;;0.50;;
14169;SDS011;63889;50.596;8.690;2023-05-10T03:01:38;0.40;;;0.38;;
14169;SDS011;63889;50.596;8.690;2023-05-10T03:04:04;0.32;;;0.32;;
14169;SDS011;63889;50.596;8.690;2023-05-10T03:06:29;0.40;;;0.32;;
14169;SDS011;63889;50.596;8.690;2023-05-10T03:08:55;0.30;;;0.28;;
14169;SDS011;63889;50.596;8.690;2023-05-10T03:17:00;0.60;;;0.40;;
14169;SDS011;63889;50.596;8.690;2023-05-10T03:19:32;1.25;;;0.50;;
14169;SDS011;63889;50.596;8.690;2023-05-10T03:22:34;0.90;;;0.52;;
14169;SDS011;63889;50.596;8.690;2023-05-10T03:25:06;9.15;;;0.88;;
14169;SDS011;63889;50.596;8.690;2023-05-10T03:27:33;0.73;;;0.52;;
14169;SDS011;63889;50.596;8.690;2023-05-10T03:30:01;2.72;;;0.65;;
14169;SDS011;63889;50.596;8.690;2023-05-10T03:32:28;2.33;;;0.57;;
14169;SDS011;63889;50.596;8.690;2023-05-10T03:34:56;1.02;;;0.82;;
14169;SDS011;63889;50.596;8.690;2023-05-10T03:37:22;1.67;;;0.60;;
14169;SDS011;63889;50.596;8.690;2023-05-10T03:39:47;1.55;;;0.80;;
14169;SDS011;63889;50.596;8.690;2023-05-10T03:42:13;2.35;;;0.88;;
14169;SDS011;63889;50.596;8.690;2023-05-10T03:44:39;1.33;;;0.73;;
14169;SDS011;63889;50.596;8.690;2023-05-10T03:47:04;1.02;;;0.80;;
14169;SDS011;63889;50.596;8.690;2023-05-10T03:49:30;1.42;;;0.95;;
14169;SDS011;63889;50.596;8.690;2023-05-10T03:51:55;2.35;;;1.27;;
14169;SDS011;63889;50.596;8.690;2023-05-10T03:54:21;2.10;;;1.10;;
14169;SDS011;63889;50.596;8.690;2023-05-10T03:56:46;2.28;;;1.50;;
14169;SDS011;63889;50.596;8.690;2023-05-10T03:59:15;1.58;;;1.13;;
14169;SDS011;63889;50.596;8.690;2023-05-10T04:01:40;4.95;;;1.40;;
14169;SDS011;63889;50.596;8.690;2023-05-10T04:04:06;1.15;;;0.95;;
14169;SDS011;63889;50.596;8.690;2023-05-10T04:06:31;1.58;;;1.23;;
14169;SDS011;63889;50.596;8.690;2023-05-10T04:08:57;1.50;;;1.38;;
14169;SDS011;63889;50.596;8.690;2023-05-10T04:11:24;4.22;;;1.58;;
14169;SDS011;63889;50.596;8.690;2023-05-10T04:13:50;1.83;;;0.88;;
14169;SDS011;63889;50.596;8.690;2023-05-10T04:16:16;3.03;;;1.30;;
14169;SDS011;63889;50.596;8.690;2023-05-10T04:18:41;3.00;;;1.30;;
14169;SDS011;63889;50.596;8.690;2023-05-10T04:21:13;1.77;;;1.08;;
14169;SDS011;63889;50.596;8.690;2023-05-10T04:23:39;1.23;;;1.10;;
14169;SDS011;63889;50.596;8.690;2023-05-10T04:26:06;1.63;;;1.02;;
14169;SDS011;63889;50.596;8.690;2023-05-10T04:28:31;1.98;;;1.23;;
14169;SDS011;63889;50.596;8.690;2023-05-10T04:31:04;1.77;;;1.02;;
14169;SDS011;63889;50.596;8.690;2023-05-10T04:33:31;2.17;;;1.35;;
14169;SDS011;63889;50.596;8.690;2023-05-10T04:35:57;3.58;;;1.80;;
14169;SDS011;63889;50.596;8.690;2023-05-10T04:38:23;6.70;;;1.92;;
14169;SDS011;63889;50.596;8.690;2023-05-10T04:40:48;4.22;;;1.95;;
14169;SDS011;63889;50.596;8.690;2023-05-10T04:43:14;3.95;;;2.17;;
14169;SDS011;63889;50.596;8.690;2023-05-10T04:45:39;7.93;;;2.97;;
14169;SDS011;63889;50.596;8.690;2023-05-10T04:48:05;5.15;;;3.03;;
14169;SDS011;63889;50.596;8.690;2023-05-10T04:50:31;6.85;;;2.60;;
14169;SDS011;63889;50.596;8.690;2023-05-10T04:52:56;5.45;;;2.30;;
14169;SDS011;63889;50.596;8.690;2023-05-10T04:55:22;2.70;;;2.25;;
14169;SDS011;63889;50.596;8.690;2023-05-10T04:57:48;6.85;;;3.00;;
14169;SDS011;63889;50.596;8.690;2023-05-10T05:00:13;5.13;;;2.20;;
14169;SDS011;63889;50.596;8.690;2023-05-10T05:02:42;4.82;;;3.20;;
14169;SDS011;63889;50.596;8.690;2023-05-10T05:05:08;3.60;;;2.10;;
14169;SDS011;63889;50.596;8.690;2023-05-10T05:07:34;3.38;;;2.00;;
14169;SDS011;63889;50.596;8.690;2023-05-10T05:09:59;3.40;;;2.10;;
14169;SDS011;63889;50.596;8.690;2023-05-10T05:12:25;4.85;;;2.75;;
14169;SDS011;63889;50.596;8.690;2023-05-10T05:14:50;4.55;;;2.75;;
14169;SDS011;63889;50.596;8.690;2023-05-10T05:17:16;5.35;;;2.40;;
14169;SDS011;63889;50.596;8.690;2023-05-10T05:19:41;3.05;;;2.15;;
14169;SDS011;63889;50.596;8.690;2023-05-10T05:22:07;7.13;;;1.95;;
14169;SDS011;63889;50.596;8.690;2023-05-10T05:24:36;6.60;;;2.78;;
14169;SDS011;63889;50.596;8.690;2023-05-10T05:27:03;4.28;;;2.58;;
14169;SDS011;63889;50.596;8.690;2023-05-10T05:29:28;4.18;;;2.22;;
14169;SDS011;63889;50.596;8.690;2023-05-10T05:31:54;5.25;;;2.13;;
14169;SDS011;63889;50.596;8.690;2023-05-10T05:34:20;6.70;;;2.00;;
14169;SDS011;63889;50.596;8.690;2023-05-10T05:36:46;1.63;;;1.20;;
14169;SDS011;63889;50.596;8.690;2023-05-10T05:39:12;4.25;;;1.17;;
14169;SDS011;63889;50.596;8.690;2023-05-10T05:41:38;1.25;;;1.10;;
14169;SDS011;63889;50.596;8.690;2023-05-10T05:44:03;3.78;;;1.50;;
14169;SDS011;63889;50.596;8.690;2023-05-10T05:46:29;3.83;;;1.10;;
14169;SDS011;63889;50.596;8.690;2023-05-10T05:48:54;1.73;;;1.20;;
14169;SDS011;63889;50.596;8.690;2023-05-10T05:51:20;2.30;;;1.50;;
14169;SDS011;63889;50.596;8.690;2023-05-10T05:53:46;2.50;;;1.30;;
14169;SDS011;63889;50.596;8.690;2023-05-10T05:56:11;2.17;;;1.67;;
14169;SDS011;63889;50.596;8.690;2023-05-10T05:58:37;2.85;;;1.35;;
14169;SDS011;63889;50.596;8.690;2023-05-10T06:01:02;1.63;;;1.17;;
14169;SDS011;63889;50.596;8.690;2023-05-10T06:03:28;1.58;;;1.17;;
14169;SDS011;63889;50.596;8.690;2023-05-10T06:05:53;4.93;;;1.60;;
14169;SDS011;63889;50.596;8.690;2023-05-10T06:08:19;1.95;;;1.35;;
14169;SDS011;63889;50.596;8.690;2023-05-10T06:10:45;2.72;;;1.25;;
14169;SDS011;63889;50.596;8.690;2023-05-10T06:13:10;4.88;;;1.20;;
14169;SDS011;63889;50.596;8.690;2023-05-10T06:15:36;1.30;;;1.20;;
14169;SDS011;63889;50.596;8.690;2023-05-10T06:18:02;4.55;;;1.00;;
14169;SDS011;63889;50.596;8.690;2023-05-10T06:20:28;1.92;;;0.90;;
14169;SDS011;63889;50.596;8.690;2023-05-10T06:22:53;1.83;;;1.10;;
14169;SDS011;63889;50.596;8.690;2023-05-10T06:25:19;1.98;;;1.10;;
14169;SDS011;63889;50.596;8.690;2023-05-10T06:27:44;1.30;;;1.20;;
14169;SDS011;63889;50.596;8.690;2023-05-10T06:30:10;2.03;;;1.02;;
14169;SDS011;63889;50.596;8.690;2023-05-10T06:32:38;2.95;;;1.50;;
14169;SDS011;63889;50.596;8.690;2023-05-10T06:35:03;3.28;;;1.80;;
14169;SDS011;63889;50.596;8.690;2023-05-10T06:37:29;1.98;;;0.70;;
14169;SDS011;63889;50.596;8.690;2023-05-10T06:39:55;0.60;;;0.60;;
14169;SDS011;63889;50.596;8.690;2023-05-10T06:42:20;1.38;;;1.00;;
14169;SDS011;63889;50.596;8.690;2023-05-10T06:44:46;0.93;;;0.80;;
14169;SDS011;63889;50.596;8.690;2023-05-10T06:47:12;0.70;;;0.60;;
14169;SDS011;63889;50.596;8.690;2023-05-10T06:49:37;1.77;;;0.68;;
14169;SDS011;63889;50.596;8.690;2023-05-10T06:52:03;1.45;;;0.88;;
14169;SDS011;63889;50.596;8.690;2023-05-10T06:54:29;1.98;;;0.80;;
14169;SDS011;63889;50.596;8.690;2023-05-10T06:56:54;1.58;;;1.00;;
14169;SDS011;63889;50.596;8.690;2023-05-10T06:59:20;1.67;;;1.20;;
14169;SDS011;63889;50.596;8.690;2023-05-10T07:01:46;3.25;;;1.08;;
14169;SDS011;63889;50.596;8.690;2023-05-10T07:04:12;2.90;;;1.45;;
14169;SDS011;63889;50.596;8.690;2023-05-10T07:06:38;2.22;;;1.05;;
14169;SDS011;63889;50.596;8.690;2023-05-10T07:09:04;2.00;;;1.25;;
14169;SDS011;63889;50.596;8.690;2023-05-10T07:11:29;6.13;;;1.33;;
14169;SDS011;63889;50.596;8.690;2023-05-10T07:13:55;1.50;;;1.30;;
14169;SDS011;63889;50.596;8.690;2023-05-10T07:16:20;2.20;;;1.50;;
14169;SDS011;63889;50.596;8.690;2023-05-10T07:18:46;2.65;;;1.35;;
14169;SDS011;63889;50.596;8.690;2023-05-10T07:21:12;1.10;;;1.00;;
14169;SDS011;63889;50.596;8.690;2023-05-10T07:23:37;3.95;;;1.63;;
14169;SDS011;63889;50.596;8.690;2023-05-10T07:26:03;3.35;;;1.52;;
14169;SDS011;63889;50.596;8.690;2023-05-10T07:28:28;3.35;;;1.77;;
14169;SDS011;63889;50.596;8.690;2023-05-10T07:30:54;3.60;;;1.65;;
14169;SDS011;63889;50.596;8.690;2023-05-10T07:33:19;3.97;;;1.38;;
14169;SDS011;63889;50.596;8.690;2023-05-10T07:35:45;2.15;;;1.33;;
14169;SDS011;63889;50.596;8.690;2023-05-10T07:38:11;5.28;;;1.60;;
14169;SDS011;63889;50.596;8.690;2023-05-10T07:40:36;3.60;;;1.73;;
14169;SDS011;63889;50.596;8.690;2023-05-10T07:43:03;2.92;;;1.40;;
14169;SDS011;63889;50.596;8.690;2023-05-10T07:45:28;2.28;;;1.60;;
14169;SDS011;63889;50.596;8.690;2023-05-10T07:47:54;2.15;;;1.55;;
14169;SDS011;63889;50.596;8.690;2023-05-10T07:50:20;4.20;;;1.60;;
14169;SDS011;63889;50.596;8.690;2023-05-10T07:52:46;4.18;;;1.55;;
14169;SDS011;63889;50.596;8.690;2023-05-10T07:55:12;2.20;;;1.48;;
14169;SDS011;63889;50.596;8.690;2023-05-10T07:57:38;4.75;;;1.25;;
14169;SDS011;63889;50.596;8.690;2023-05-10T08:00:04;1.20;;;1.10;;
14169;SDS011;63889;50.596;8.690;2023-05-10T08:02:30;1.38;;;1.20;;
14169;SDS011;63889;50.596;8.690;2023-05-10T08:04:56;1.67;;;1.50;;
14169;SDS011;63889;50.596;8.690;2023-05-10T08:07:22;1.55;;;1.10;;
14169;SDS011;63889;50.596;8.690;2023-05-10T08:09:49;2.75;;;1.02;;
14169;SDS011;63889;50.596;8.690;2023-05-10T08:12:14;2.95;;;1.17;;
14169;SDS011;63889;50.596;8.690;2023-05-10T08:14:40;1.27;;;1.10;;
14169;SDS011;63889;50.596;8.690;2023-05-10T08:17:06;1.60;;;1.27;;
14169;SDS011;63889;50.596;8.690;2023-05-10T08:19:31;6.30;;;1.45;;
14169;SDS011;63889;50.596;8.690;2023-05-10T08:21:57;1.52;;;1.02;;
14169;SDS011;63889;50.596;8.690;2023-05-10T08:24:22;1.85;;;1.13;;
14169;SDS011;63889;50.596;8.690;2023-05-10T08:26:48;2.38;;;1.13;;
14169;SDS011;63889;50.596;8.690;2023-05-10T08:29:14;1.40;;;1.20;;
14169;SDS011;63889;50.596;8.690;2023-05-10T08:31:39;3.72;;;1.58;;
14169;SDS011;63889;50.596;8.690;2023-05-10T08:34:05;1.48;;;1.33;;
14169;SDS011;63889;50.596;8.690;2023-05-10T08:36:31;3.10;;;0.90;;
14169;SDS011;63889;50.596;8.690;2023-05-10T08:38:57;9.68;;;1.45;;
14169;SDS011;63889;50.596;8.690;2023-05-10T08:41:23;8.43;;;1.48;;
14169;SDS011;63889;50.596;8.690;2023-05-10T08:43:50;1.83;;;0.98;;
14169;SDS011;63889;50.596;8.690;2023-05-10T08:46:17;2.00;;;1.40;;
14169;SDS011;63889;50.596;8.690;2023-05-10T08:48:45;1.63;;;1.08;;
14169;SDS011;63889;50.596;8.690;2023-05-10T08:51:15;5.03;;;1.20;;
14169;SDS011;63889;50.596;8.690;2023-05-10T08:53:43;1.70;;;1.27;;
14169;SDS011;63889;50.596;8.690;2023-05-10T08:56:09;2.30;;;1.42;;
14169;SDS011;63889;50.596;8.690;2023-05-10T08:58:35;3.53;;;1.40;;
14169;SDS011;63889;50.596;8.690;2023-05-10T09:01:01;1.48;;;1.30;;
14169;SDS011;63889;50.596;8.690;2023-05-10T09:03:28;4.63;;;2.20;;
14169;SDS011;63889;50.596;8.690;2023-05-10T09:05:54;4.25;;;1.77;;
14169;SDS011;63889;50.596;8.690;2023-05-10T09:08:20;3.97;;;1.88;;
14169;SDS011;63889;50.596;8.690;2023-05-10T09:10:50;2.78;;;1.50;;
14169;SDS011;63889;50.596;8.690;2023-05-10T09:13:16;4.00;;;1.98;;
14169;SDS011;63889;50.596;8.690;2023-05-10T09:15:43;2.80;;;1.88;;
14169;SDS011;63889;50.596;8.690;2023-05-10T09:18:09;8.40;;;2.35;;
14169;SDS011;63889;50.596;8.690;2023-05-10T09:20:35;7.55;;;2.40;;
14169;SDS011;63889;50.596;8.690;2023-05-10T09:23:00;3.88;;;1.73;;
14169;SDS011;63889;50.596;8.690;2023-05-10T09:25:26;3.55;;;1.50;;
14169;SDS011;63889;50.596;8.690;2023-05-10T09:27:52;3.95;;;1.60;;
14169;SDS011;63889;50.596;8.690;2023-05-10T09:30:24;1.65;;;1.20;;
14169;SDS011;63889;50.596;8.690;2023-05-10T09:32:52;7.35;;;3.15;;
14169;SDS011;63889;50.596;8.690;2023-05-10T09:35:21;3.13;;;1.33;;
14169;SDS011;63889;50.596;8.690;2023-05-10T09:37:50;3.00;;;1.67;;
14169;SDS011;63889;50.596;8.690;2023-05-10T09:40:17;3.58;;;1.90;;
14169;SDS011;63889;50.596;8.690;2023-05-10T09:42:54;2.67;;;1.65;;
14169;SDS011;63889;50.596;8.690;2023-05-10T09:45:23;4.45;;;1.40;;
14169;SDS011;63889;50.596;8.690;2023-05-10T09:47:49;5.22;;;2.20;;
14169;SDS011;63889;50.596;8.690;2023-05-10T09:50:15;4.03;;;1.70;;
14169;SDS011;63889;50.596;8.690;2023-05-10T09:53:00;3.85;;;2.20;;
14169;SDS011;63889;50.596;8.690;2023-05-10T09:55:38;4.80;;;2.13;;
14169;SDS011;63889;50.596;8.690;2023-05-10T09:58:05;2.63;;;1.58;;
14169;SDS011;63889;50.596;8.690;2023-05-10T10:00:38;3.50;;;1.98;;
14169;SDS011;63889;50.596;8.690;2023-05-10T10:03:06;5.10;;;2.17;;
14169;SDS011;63889;50.596;8.690;2023-05-10T10:05:36;3.38;;;2.10;;
14169;SDS011;63889;50.596;8.690;2023-05-10T10:08:05;3.80;;;1.73;;
14169;SDS011;63889;50.596;8.690;2023-05-10T10:10:31;2.53;;;1.92;;
14169;SDS011;63889;50.596;8.690;2023-05-10T10:12:58;3.13;;;1.85;;
14169;SDS011;63889;50.596;8.690;2023-05-10T10:15:24;4.43;;;2.15;;
14169;SDS011;63889;50.596;8.690;2023-05-10T10:17:50;4.57;;;2.30;;
14169;SDS011;63889;50.596;8.690;2023-05-10T10:20:18;6.13;;;2.40;;
14169;SDS011;63889;50.596;8.690;2023-05-10T10:22:44;3.92;;;1.55;;
14169;SDS011;63889;50.596;8.690;2023-05-10T10:25:11;4.15;;;1.30;;
14169;SDS011;63889;50.596;8.690;2023-05-10T10:33:33;4.65;;;1.55;;
14169;SDS011;63889;50.596;8.690;2023-05-10T10:36:07;2.38;;;1.30;;
14169;SDS011;63889;50.596;8.690;2023-05-10T10:38:37;1.77;;;1.20;;
14169;SDS011;63889;50.596;8.690;2023-05-10T10:41:10;3.47;;;1.30;;
14169;SDS011;63889;50.596;8.690;2023-05-10T10:44:20;2.92;;;1.60;;
14169;SDS011;63889;50.596;8.690;2023-05-10T10:46:59;2.67;;;2.03;;
14169;SDS011;63889;50.596;8.690;2023-05-10T10:49:25;3.63;;;2.20;;
14169;SDS011;63889;50.596;8.690;2023-05-10T10:54:39;3.65;;;2.20;;
14169;SDS011;63889;50.596;8.690;2023-05-10T10:57:10;5.53;;;2.65;;
14169;SDS011;63889;50.596;8.690;2023-05-10T10:59:41;5.13;;;2.80;;
14169;SDS011;63889;50.596;8.690;2023-05-10T11:02:09;4.00;;;2.95;;
14169;SDS011;63889;50.596;8.690;2023-05-10T11:04:41;3.58;;;2.55;;
14169;SDS011;63889;50.596;8.690;2023-05-10T11:07:18;6.40;;;3.10;;
14169;SDS011;63889;50.596;8.690;2023-05-10T11:09:47;7.18;;;4.80;;
14169;SDS011;63889;50.596;8.690;2023-05-10T11:12:13;9.15;;;4.40;;
14169;SDS011;63889;50.596;8.690;2023-05-10T11:14:39;5.70;;;3.55;;
14169;SDS011;63889;50.596;8.690;2023-05-10T11:20:10;6.50;;;3.75;;
14169;SDS011;63889;50.596;8.690;2023-05-10T11:23:12;6.45;;;4.45;;
14169;SDS011;63889;50.596;8.690;2023-05-10T11:25:41;7.90;;;4.20;;
14169;SDS011;63889;50.596;8.690;2023-05-10T11:28:09;6.57;;;3.95;;
14169;SDS011;63889;50.596;8.690;2023-05-10T11:30:35;6.65;;;3.55;;
14169;SDS011;63889;50.596;8.690;2023-05-10T11:33:02;6.72;;;3.72;;
14169;SDS011;63889;50.596;8.690;2023-05-10T11:35:28;9.38;;;4.40;;
14169;SDS011;63889;50.596;8.690;2023-05-10T11:37:53;10.73;;;4.25;;
14169;SDS011;63889;50.596;8.690;2023-05-10T11:40:21;6.60;;;4.20;;
14169;SDS011;63889;50.596;8.690;2023-05-10T11:42:49;6.32;;;3.60;;
14169;SDS011;63889;50.596;8.690;2023-05-10T11:45:15;7.05;;;3.97;;
14169;SDS011;63889;50.596;8.690;2023-05-10T11:47:41;7.63;;;4.03;;
14169;SDS011;63889;50.596;8.690;2023-05-10T11:50:08;5.75;;;3.22;;
14169;SDS011;63889;50.596;8.690;2023-05-10T11:52:35;6.45;;;3.33;;
14169;SDS011;63889;50.596;8.690;2023-05-10T11:55:04;3.50;;;2.67;;
14169;SDS011;63889;50.596;8.690;2023-05-10T11:57:30;2.75;;;1.83;;
14169;SDS011;63889;50.596;8.690;2023-05-10T11:59:56;3.47;;;2.30;;
14169;SDS011;63889;50.596;8.690;2023-05-10T12:02:22;4.35;;;1.77;;
14169;SDS011;63889;50.596;8.690;2023-05-10T12:04:48;1.90;;;1.58;;
14169;SDS011;63889;50.596;8.690;2023-05-10T12:07:15;2.75;;;1.63;;
14169;SDS011;63889;50.596;8.690;2023-05-10T12:09:44;4.70;;;1.55;;
14169;SDS011;63889;50.596;8.690;2023-05-10T12:12:27;4.35;;;1.92;;
14169;SDS011;63889;50.596;8.690;2023-05-10T12:14:52;2.83;;;1.58;;
14169;SDS011;63889;50.596;8.690;2023-05-10T12:17:17;6.20;;;2.40;;
14169;SDS011;63889;50.596;8.690;2023-05-10T12:19:43;2.65;;;2.25;;
14169;SDS011;63889;50.596;8.690;2023-05-10T12:22:08;3.45;;;2.17;;
14169;SDS011;63889;50.596;8.690;2023-05-10T12:24:37;3.00;;;1.58;;
14169;SDS011;63889;50.596;8.690;2023-05-10T12:27:09;2.38;;;1.60;;
14169;SDS011;63889;50.596;8.690;2023-05-10T12:29:37;3.05;;;1.45;;
14169;SDS011;63889;50.596;8.690;2023-05-10T12:32:08;3.83;;;1.70;;
14169;SDS011;63889;50.596;8.690;2023-05-10T12:34:34;2.50;;;1.90;;
14169;SDS011;63889;50.596;8.690;2023-05-10T12:37:03;4.57;;;1.83;;
14169;SDS011;63889;50.596;8.690;2023-05-10T12:39:42;2.45;;;1.60;;
14169;SDS011;63889;50.596;8.690;2023-05-10T12:42:09;1.83;;;1.33;;
14169;SDS011;63889;50.596;8.690;2023-05-10T12:44:35;4.30;;;2.40;;
14169;SDS011;63889;50.596;8.690;2023-05-10T12:47:01;2.75;;;1.40;;
14169;SDS011;63889;50.596;8.690;2023-05-10T12:49:26;3.70;;;2.03;;
14169;SDS011;63889;50.596;8.690;2023-05-10T12:51:52;4.75;;;1.27;;
14169;SDS011;63889;50.596;8.690;2023-05-10T12:54:17;3.30;;;1.73;;
14169;SDS011;63889;50.596;8.690;2023-05-10T12:56:43;1.55;;;1.40;;
14169;SDS011;63889;50.596;8.690;2023-05-10T12:59:08;5.38;;;1.80;;
14169;SDS011;63889;50.596;8.690;2023-05-10T13:01:34;1.73;;;1.08;;
14169;SDS011;63889;50.596;8.690;2023-05-10T13:03:59;5.80;;;1.63;;
14169;SDS011;63889;50.596;8.690;2023-05-10T13:06:25;2.20;;;1.33;;
14169;SDS011;63889;50.596;8.690;2023-05-10T13:08:50;2.00;;;1.33;;
14169;SDS011;63889;50.596;8.690;2023-05-10T13:11:16;3.88;;;1.75;;
14169;SDS011;63889;50.596;8.690;2023-05-10T13:13:44;2.03;;;1.25;;
14169;SDS011;63889;50.596;8.690;2023-05-10T13:16:10;2.10;;;1.30;;
14169;SDS011;63889;50.596;8.690;2023-05-10T13:18:35;2.65;;;1.10;;
14169;SDS011;63889;50.596;8.690;2023-05-10T13:21:01;2.17;;;1.05;;
14169;SDS011;63889;50.596;8.690;2023-05-10T13:23:28;2.30;;;1.30;;
14169;SDS011;63889;50.596;8.690;2023-05-10T13:25:54;2.88;;;1.20;;
14169;SDS011;63889;50.596;8.690;2023-05-10T13:28:20;1.25;;;1.00;;
14169;SDS011;63889;50.596;8.690;2023-05-10T13:30:45;2.15;;;1.25;;
14169;SDS011;63889;50.596;8.690;2023-05-10T13:33:11;3.85;;;1.55;;
14169;SDS011;63889;50.596;8.690;2023-05-10T13:35:36;3.13;;;1.50;;
14169;SDS011;63889;50.596;8.690;2023-05-10T13:38:02;2.33;;;1.13;;
14169;SDS011;63889;50.596;8.690;2023-05-10T13:40:27;1.67;;;1.08;;
14169;SDS011;63889;50.596;8.690;2023-05-10T13:42:53;3.78;;;1.20;;
14169;SDS011;63889;50.596;8.690;2023-05-10T13:45:19;7.72;;;0.93;;
14169;SDS011;63889;50.596;8.690;2023-05-10T13:47:44;1.85;;;1.50;;
14169;SDS011;63889;50.596;8.690;2023-05-10T13:50:10;5.53;;;2.10;;
14169;SDS011;63889;50.596;8.690;2023-05-10T13:52:35;2.70;;;0.50;;
14169;SDS011;63889;50.596;8.690;2023-05-10T13:55:01;3.33;;;1.27;;
14169;SDS011;63889;50.596;8.690;2023-05-10T13:57:26;1.13;;;0.70;;
14169;SDS011;63889;50.596;8.690;2023-05-10T13:59:53;2.55;;;0.90;;
14169;SDS011;63889;50.596;8.690;2023-05-10T14:02:19;0.80;;;0.70;;
14169;SDS011;63889;50.596;8.690;2023-05-10T14:04:44;1.77;;;0.77;;
14169;SDS011;63889;50.596;8.690;2023-05-10T14:07:10;2.50;;;1.08;;
14169;SDS011;63889;50.596;8.690;2023-05-10T14:09:36;4.32;;;0.77;;
14169;SDS011;63889;50.596;8.690;2023-05-10T14:12:01;1.00;;;0.50;;
14169;SDS011;63889;50.596;8.690;2023-05-10T14:14:27;3.75;;;0.50;;
14169;SDS011;63889;50.596;8.690;2023-05-10T14:16:54;0.93;;;0.40;;
14169;SDS011;63889;50.596;8.690;2023-05-10T14:19:20;0.35;;;0.35;;
14169;SDS011;63889;50.596;8.690;2023-05-10T14:21:45;1.92;;;0.40;;
14169;SDS011;63889;50.596;8.690;2023-05-10T14:24:11;1.33;;;0.30;;
14169;SDS011;63889;50.596;8.690;2023-05-10T14:26:36;1.13;;;0.20;;
14169;SDS011;63889;50.596;8.690;2023-05-10T14:29:02;2.50;;;0.30;;
14169;SDS011;63889;50.596;8.690;2023-05-10T14:31:27;3.13;;;0.45;;
14169;SDS011;63889;50.596;8.690;2023-05-10T14:33:55;4.40;;;0.35;;
14169;SDS011;63889;50.596;8.690;2023-05-10T14:36:20;2.80;;;0.45;;
14169;SDS011;63889;50.596;8.690;2023-05-10T14:38:46;0.77;;;0.60;;
14169;SDS011;63889;50.596;8.690;2023-05-10T14:41:11;0.68;;;0.50;;
14169;SDS011;63889;50.596;8.690;2023-05-10T14:43:39;2.35;;;0.52;;
14169;SDS011;63889;50.596;8.690;2023-05-10T14:46:06;1.98;;;0.50;;
14169;SDS011;63889;50.596;8.690;2023-05-10T14:48:31;0.88;;;0.40;;
14169;SDS011;63889;50.596;8.690;2023-05-10T14:50:57;1.88;;;0.50;;
14169;SDS011;63889;50.596;8.690;2023-05-10T14:53:23;11.52;;;1.13;;
14169;SDS011;63889;50.596;8.690;2023-05-10T14:55:48;1.45;;;0.50;;
14169;SDS011;63889;50.596;8.690;2023-05-10T14:58:14;2.47;;;0.82;;
14169;SDS011;63889;50.596;8.690;2023-05-10T15:00:40;1.42;;;0.60;;
14169;SDS011;63889;50.596;8.690;2023-05-10T15:03:05;0.30;;;0.30;;
14169;SDS011;63889;50.596;8.690;2023-05-10T15:05:31;1.75;;;0.75;;
14169;SDS011;63889;50.596;8.690;2023-05-10T15:07:56;0.55;;;0.50;;
14169;SDS011;63889;50.596;8.690;2023-05-10T15:10:22;0.88;;;0.60;;
14169;SDS011;63889;50.596;8.690;2023-05-10T15:12:47;0.50;;;0.50;;
14169;SDS011;63889;50.596;8.690;2023-05-10T15:15:13;1.98;;;0.43;;
14169;SDS011;63889;50.596;8.690;2023-05-10T15:17:38;0.95;;;0.77;;
14169;SDS011;63889;50.596;8.690;2023-05-10T15:20:04;0.30;;;0.30;;
14169;SDS011;63889;50.596;8.690;2023-05-10T15:22:30;1.98;;;0.40;;